createdAt,value
2022-09-16T00:01:31.593Z,19.13
2022-09-16T00:03:57.984Z,19.14
2022-09-16T00:06:24.326Z,19.15
2022-09-16T00:08:50.678Z,19.13
2022-09-16T00:11:17.044Z,19.11
2022-09-16T00:13:43.446Z,19.07
2022-09-16T00:16:09.886Z,19.10
2022-09-16T00:18:36.298Z,19.05
2022-09-16T00:21:02.647Z,19.04
2022-09-16T00:23:29.007Z,18.99
2022-09-16T00:25:56.391Z,19.00
2022-09-16T00:28:22.770Z,18.75
2022-09-16T00:30:49.123Z,18.75
2022-09-16T00:33:15.493Z,18.79
2022-09-16T00:35:41.969Z,18.80
2022-09-16T00:38:08.439Z,18.93
2022-09-16T00:40:34.814Z,18.89
2022-09-16T00:43:01.179Z,18.84
2022-09-16T00:45:27.538Z,18.95
2022-09-16T00:47:53.889Z,18.85
2022-09-16T00:50:20.401Z,18.77
2022-09-16T00:52:46.853Z,18.77
2022-09-16T00:55:13.210Z,18.86
2022-09-16T00:57:39.561Z,18.94
2022-09-16T01:00:06.057Z,19.00
2022-09-16T01:02:32.427Z,18.99
2022-09-16T01:04:58.775Z,19.01
2022-09-16T01:07:25.108Z,18.97
2022-09-16T01:09:51.473Z,18.96
2022-09-16T01:12:17.840Z,18.96
2022-09-16T01:14:44.175Z,18.94
2022-09-16T01:17:10.594Z,18.95
2022-09-16T01:19:36.991Z,18.97
2022-09-16T01:22:03.350Z,18.98
2022-09-16T01:24:29.705Z,18.95
2022-09-16T01:26:56.071Z,18.98
2022-09-16T01:29:22.486Z,18.92
2022-09-16T01:31:48.932Z,18.92
2022-09-16T01:34:15.321Z,18.92
2022-09-16T01:36:41.656Z,18.94
2022-09-16T01:39:08.071Z,18.96
2022-09-16T01:41:34.426Z,18.95
2022-09-16T01:44:00.856Z,18.67
2022-09-16T01:46:27.206Z,18.68
2022-09-16T01:48:53.985Z,18.67
2022-09-16T01:51:20.516Z,18.67
2022-09-16T01:53:46.946Z,18.65
2022-09-16T01:56:13.347Z,18.70
2022-09-16T01:58:39.716Z,18.62
2022-09-16T02:01:06.084Z,18.59
2022-09-16T02:03:32.455Z,18.60
2022-09-16T02:05:58.829Z,18.64
2022-09-16T02:08:25.245Z,18.61
2022-09-16T02:10:51.644Z,18.54
2022-09-16T02:13:18.066Z,18.56
2022-09-16T02:15:44.482Z,18.73
2022-09-16T02:18:10.883Z,18.69
2022-09-16T02:20:37.297Z,18.66
2022-09-16T02:23:03.641Z,18.64
2022-09-16T02:25:30.034Z,18.62
2022-09-16T02:27:56.407Z,18.57
2022-09-16T02:30:22.788Z,18.53
2022-09-16T02:32:49.161Z,18.50
2022-09-16T02:35:15.528Z,18.40
2022-09-16T02:37:41.952Z,18.29
2022-09-16T02:40:08.359Z,18.44
2022-09-16T02:42:34.762Z,18.55
2022-09-16T02:45:01.123Z,18.44
2022-09-16T02:47:27.492Z,18.43
2022-09-16T02:49:53.856Z,18.46
2022-09-16T02:52:20.213Z,18.36
2022-09-16T02:54:46.588Z,18.45
2022-09-16T02:57:12.948Z,18.35
2022-09-16T02:59:39.313Z,18.15
2022-09-16T03:02:05.731Z,18.22
2022-09-16T03:04:32.129Z,18.30
2022-09-16T03:06:58.516Z,18.02
2022-09-16T03:09:24.891Z,17.98
2022-09-16T03:11:51.364Z,18.12
2022-09-16T03:14:17.737Z,18.12
2022-09-16T03:16:46.156Z,18.16
2022-09-16T03:19:12.671Z,18.07
2022-09-16T03:21:39.028Z,18.00
2022-09-16T03:24:05.395Z,18.00
2022-09-16T03:26:33.794Z,18.00
2022-09-16T03:29:00.166Z,18.04
2022-09-16T03:31:26.683Z,18.01
2022-09-16T03:33:53.138Z,18.15
2022-09-16T03:36:19.488Z,18.17
2022-09-16T03:38:45.840Z,18.24
2022-09-16T03:41:12.187Z,18.14
2022-09-16T03:43:38.553Z,18.10
2022-09-16T03:46:04.983Z,17.96
2022-09-16T03:48:31.384Z,18.06
2022-09-16T03:50:57.778Z,18.18
2022-09-16T03:53:24.154Z,18.27
2022-09-16T03:55:50.530Z,18.37
2022-09-16T03:58:16.977Z,18.41
2022-09-16T04:00:43.391Z,18.46
2022-09-16T04:03:09.766Z,18.49
2022-09-16T04:05:36.159Z,18.50
2022-09-16T04:08:02.526Z,18.56
2022-09-16T04:10:28.910Z,18.56
2022-09-16T04:12:55.267Z,18.52
2022-09-16T04:15:21.617Z,18.46
2022-09-16T04:17:47.981Z,18.49
2022-09-16T04:20:14.386Z,18.42
2022-09-16T04:22:40.777Z,18.45
2022-09-16T04:25:07.183Z,18.33
2022-09-16T04:27:34.603Z,18.24
2022-09-16T04:30:01.202Z,18.24
2022-09-16T04:32:27.687Z,18.31
2022-09-16T04:34:54.062Z,18.23
2022-09-16T04:37:20.559Z,18.14
2022-09-16T04:39:47.145Z,18.14
2022-09-16T04:42:13.596Z,18.10
2022-09-16T04:44:40.150Z,18.20
2022-09-16T04:47:06.503Z,18.19
2022-09-16T04:49:32.876Z,18.15
2022-09-16T04:51:59.230Z,18.05
2022-09-16T04:54:25.671Z,18.08
2022-09-16T04:56:52.022Z,18.11
2022-09-16T04:59:18.363Z,18.08
2022-09-16T05:01:44.758Z,18.15
2022-09-16T05:04:11.165Z,18.12
2022-09-16T05:06:38.288Z,18.13
2022-09-16T05:09:04.638Z,18.21
2022-09-16T05:11:30.996Z,18.31
2022-09-16T05:13:57.345Z,18.34
2022-09-16T05:16:23.950Z,18.31
2022-09-16T05:18:50.393Z,18.28
2022-09-16T05:21:16.792Z,18.20
2022-09-16T05:23:46.677Z,18.25
2022-09-16T05:26:13.583Z,18.16
2022-09-16T05:28:39.957Z,18.03
2022-09-16T05:31:06.404Z,17.84
2022-09-16T05:33:32.803Z,17.95
2022-09-16T05:35:59.159Z,17.78
2022-09-16T05:38:25.515Z,17.78
2022-09-16T05:40:51.881Z,17.74
2022-09-16T05:43:18.231Z,17.67
2022-09-16T05:45:44.718Z,17.62
2022-09-16T05:48:11.088Z,17.56
2022-09-16T05:50:37.471Z,17.45
2022-09-16T05:53:03.827Z,17.34
2022-09-16T05:55:30.244Z,17.40
2022-09-16T05:57:56.622Z,17.32
2022-09-16T06:00:23.196Z,17.26
2022-09-16T06:02:49.611Z,17.36
2022-09-16T06:05:16.229Z,17.39
2022-09-16T06:07:42.577Z,17.38
2022-09-16T06:10:08.920Z,17.39
2022-09-16T06:12:35.324Z,17.46
2022-09-16T06:15:01.757Z,17.43
2022-09-16T06:17:28.095Z,17.43
2022-09-16T06:19:54.427Z,17.50
2022-09-16T06:22:20.908Z,17.49
2022-09-16T06:24:47.275Z,17.49
2022-09-16T06:27:13.658Z,17.49
2022-09-16T06:29:40.032Z,17.49
2022-09-16T06:32:06.386Z,17.62
2022-09-16T06:34:33.738Z,17.62
2022-09-16T06:37:00.090Z,17.62
2022-09-16T06:39:26.457Z,17.79
2022-09-16T06:41:52.817Z,17.91
2022-09-16T06:44:19.181Z,17.75
2022-09-16T06:46:45.523Z,17.93
2022-09-16T06:49:11.890Z,18.12
2022-09-16T06:51:38.259Z,18.00
2022-09-16T06:54:04.626Z,18.03
2022-09-16T06:56:33.389Z,18.21
2022-09-16T06:58:59.752Z,18.33
2022-09-16T07:01:26.239Z,18.34
2022-09-16T07:03:52.847Z,18.50
2022-09-16T07:06:19.319Z,18.44
2022-09-16T07:08:45.671Z,18.43
2022-09-16T07:11:12.083Z,18.63
2022-09-16T07:13:38.513Z,18.59
2022-09-16T07:16:13.700Z,18.45
2022-09-16T07:18:41.582Z,18.39
2022-09-16T07:21:08.079Z,18.48
2022-09-16T07:23:34.445Z,18.64
2022-09-16T07:26:00.804Z,18.81
2022-09-16T07:28:27.189Z,18.78
2022-09-16T07:30:53.638Z,18.79
2022-09-16T07:33:20.076Z,18.99
2022-09-16T07:35:46.441Z,19.00
2022-09-16T07:38:12.804Z,18.97
2022-09-16T07:40:39.198Z,19.09
2022-09-16T07:43:08.377Z,19.05
2022-09-16T07:45:34.790Z,19.04
2022-09-16T07:48:01.188Z,19.13
2022-09-16T07:50:27.559Z,19.24
2022-09-16T07:52:53.914Z,19.09
2022-09-16T07:55:20.289Z,19.19
2022-09-16T07:57:46.680Z,19.15
2022-09-16T08:00:13.039Z,19.25
2022-09-16T08:02:39.449Z,19.14
2022-09-16T08:05:05.831Z,19.17
2022-09-16T08:07:32.204Z,19.28
2022-09-16T08:09:58.591Z,19.36
2022-09-16T08:12:25.106Z,19.29
2022-09-16T08:14:51.455Z,19.22
2022-09-16T08:17:17.821Z,19.20
2022-09-16T08:19:44.169Z,19.44
2022-09-16T08:22:10.540Z,19.34
2022-09-16T08:24:36.911Z,19.43
2022-09-16T08:27:03.330Z,19.50
2022-09-16T08:29:29.818Z,19.52
2022-09-16T08:31:56.251Z,19.74
2022-09-16T08:34:22.656Z,19.38
2022-09-16T08:36:49.030Z,19.73
2022-09-16T08:39:15.422Z,19.68
2022-09-16T08:41:41.780Z,19.49
2022-09-16T08:44:08.127Z,19.72
2022-09-16T08:46:34.469Z,19.73
2022-09-16T08:49:00.913Z,19.57
2022-09-16T08:51:27.296Z,19.53
2022-09-16T08:53:53.686Z,19.00
2022-09-16T08:56:20.217Z,18.86
2022-09-16T08:58:46.577Z,19.14
2022-09-16T09:01:14.070Z,19.67
2022-09-16T09:03:40.657Z,19.89
2022-09-16T09:06:07.088Z,19.54
2022-09-16T09:08:33.443Z,19.14
2022-09-16T09:10:59.806Z,18.81
2022-09-16T09:13:27.027Z,19.51
2022-09-16T09:15:54.112Z,19.43
2022-09-16T09:18:20.472Z,19.53
2022-09-16T09:20:46.823Z,18.92
2022-09-16T09:23:13.191Z,18.87
2022-09-16T09:25:39.594Z,18.88
2022-09-16T09:28:05.976Z,18.91
2022-09-16T09:30:32.336Z,18.84
2022-09-16T09:32:58.866Z,19.13
2022-09-16T09:35:25.316Z,19.26
2022-09-16T09:37:51.706Z,19.42
2022-09-16T09:40:18.189Z,19.42
2022-09-16T09:42:44.651Z,19.65
2022-09-16T09:45:11.030Z,20.06
2022-09-16T09:47:37.393Z,20.11
2022-09-16T09:50:03.769Z,20.09
2022-09-16T09:52:30.126Z,20.15
2022-09-16T09:54:57.631Z,19.97
2022-09-16T09:57:23.975Z,20.09
2022-09-16T09:59:50.357Z,20.32
2022-09-16T10:02:16.733Z,20.11
2022-09-16T10:04:43.153Z,19.74
2022-09-16T10:07:09.507Z,19.69
2022-09-16T10:09:35.894Z,19.64
2022-09-16T10:12:02.276Z,19.53
2022-09-16T10:14:28.646Z,19.55
2022-09-16T10:16:55.006Z,19.79
2022-09-16T10:19:21.347Z,19.77
2022-09-16T10:21:47.735Z,19.67
2022-09-16T10:24:14.085Z,20.04
2022-09-16T10:26:40.447Z,20.34
2022-09-16T10:29:06.870Z,20.41
2022-09-16T10:31:34.504Z,20.49
2022-09-16T10:34:01.157Z,20.41
2022-09-16T10:36:27.504Z,20.52
2022-09-16T10:38:53.884Z,20.38
2022-09-16T10:41:20.288Z,20.65
2022-09-16T10:43:46.670Z,21.11
2022-09-16T10:46:13.118Z,21.02
2022-09-16T10:48:39.576Z,21.06
2022-09-16T10:51:05.939Z,20.96
2022-09-16T10:53:32.406Z,20.70
2022-09-16T10:55:58.916Z,20.58
2022-09-16T10:58:25.352Z,20.18
2022-09-16T11:00:51.820Z,19.53
2022-09-16T11:03:18.203Z,20.24
2022-09-16T11:05:44.577Z,20.07
2022-09-16T11:08:10.914Z,20.25
2022-09-16T11:10:37.294Z,20.32
2022-09-16T11:13:03.633Z,20.23
2022-09-16T11:15:30.007Z,20.39
2022-09-16T11:17:56.449Z,19.78
2022-09-16T11:20:22.831Z,20.36
2022-09-16T11:22:49.241Z,20.45
2022-09-16T11:25:15.591Z,20.62
2022-09-16T11:27:41.965Z,19.62
2022-09-16T11:30:08.386Z,19.19
2022-09-16T11:32:34.875Z,19.33
2022-09-16T11:35:01.295Z,19.02
2022-09-16T11:37:27.705Z,19.46
2022-09-16T11:39:54.149Z,20.54
2022-09-16T11:42:20.540Z,20.30
2022-09-16T11:44:46.902Z,20.48
2022-09-16T11:47:13.334Z,20.73
2022-09-16T11:49:39.709Z,21.27
2022-09-16T11:52:06.056Z,21.40
2022-09-16T11:54:33.367Z,21.65
2022-09-16T11:56:59.735Z,22.10
2022-09-16T11:59:26.096Z,22.61
2022-09-16T12:01:52.633Z,23.10
2022-09-16T12:04:19.031Z,22.82
2022-09-16T12:06:45.394Z,22.48
2022-09-16T12:09:11.758Z,22.55
2022-09-16T12:11:38.111Z,22.33
2022-09-16T12:14:06.100Z,22.23
2022-09-16T12:16:32.827Z,23.20
2022-09-16T12:18:59.187Z,23.57
2022-09-16T12:21:25.549Z,23.84
2022-09-16T12:23:51.886Z,24.08
2022-09-16T12:26:18.232Z,24.35
2022-09-16T12:28:44.591Z,23.81
2022-09-16T12:31:11.016Z,24.25
2022-09-16T12:33:39.547Z,24.50
2022-09-16T12:36:05.925Z,24.09
2022-09-16T12:38:32.272Z,24.19
2022-09-16T12:40:58.683Z,24.85
2022-09-16T12:43:25.104Z,24.76
2022-09-16T12:45:51.494Z,24.80
2022-09-16T12:48:17.845Z,24.73
2022-09-16T12:50:44.238Z,23.93
2022-09-16T12:53:10.611Z,23.80
2022-09-16T12:55:36.990Z,23.12
2022-09-16T12:58:03.376Z,22.97
2022-09-16T13:00:29.765Z,22.91
2022-09-16T13:02:56.254Z,22.77
2022-09-16T13:05:22.652Z,22.72
2022-09-16T13:07:49.081Z,22.86
2022-09-16T13:10:15.451Z,22.91
2022-09-16T13:12:44.715Z,22.86
2022-09-16T13:15:11.404Z,22.71
2022-09-16T13:17:37.994Z,22.70
2022-09-16T13:20:04.380Z,22.80
2022-09-16T13:22:30.785Z,22.67
2022-09-16T13:24:57.267Z,22.41
2022-09-16T13:27:23.653Z,22.46
2022-09-16T13:29:50.029Z,22.45
2022-09-16T13:32:16.462Z,22.18
2022-09-16T13:34:42.846Z,22.05
2022-09-16T13:37:09.203Z,21.78
2022-09-16T13:39:35.564Z,21.54
2022-09-16T13:42:01.918Z,21.39
2022-09-16T13:44:28.282Z,21.21
2022-09-16T13:46:54.642Z,21.14
2022-09-16T13:49:21.028Z,21.08
2022-09-16T13:51:47.395Z,21.15
2022-09-16T13:54:13.777Z,21.09
2022-09-16T13:56:40.134Z,20.96
2022-09-16T13:59:06.496Z,20.59
2022-09-16T14:01:48.881Z,20.52
2022-09-16T14:04:19.217Z,20.50
2022-09-16T14:06:45.609Z,20.55
2022-09-16T14:09:11.953Z,20.61
2022-09-16T14:11:38.327Z,20.42
2022-09-16T14:14:06.823Z,20.34
2022-09-16T14:16:33.985Z,20.39
2022-09-16T14:19:00.355Z,20.48
2022-09-16T14:21:26.732Z,20.25
2022-09-16T14:26:24.388Z,20.36
2022-09-16T14:28:50.798Z,20.22
2022-09-16T14:31:17.253Z,20.14
2022-09-16T14:33:43.665Z,20.26
2022-09-16T14:36:10.056Z,20.17
2022-09-16T14:38:45.580Z,20.11
2022-09-16T14:41:23.886Z,20.30
2022-09-16T14:43:50.234Z,20.36
2022-09-16T14:46:16.729Z,20.36
2022-09-16T14:48:43.089Z,20.19
2022-09-16T14:51:09.463Z,20.17
2022-09-16T14:53:38.274Z,20.22
2022-09-16T14:56:04.896Z,20.14
2022-09-16T14:58:31.261Z,20.04
2022-09-16T15:00:57.625Z,20.04
2022-09-16T15:03:23.989Z,20.27
2022-09-16T15:05:50.356Z,20.13
2022-09-16T15:08:16.697Z,20.19
2022-09-16T15:10:52.403Z,20.33
2022-09-16T15:13:19.387Z,20.30
2022-09-16T15:15:45.778Z,20.16
2022-09-16T15:18:12.184Z,20.05
2022-09-16T15:20:38.644Z,20.10
2022-09-16T15:23:12.732Z,20.31
2022-09-16T15:25:39.275Z,20.19
2022-09-16T15:28:05.669Z,19.92
2022-09-16T15:30:32.018Z,19.89
2022-09-16T15:32:58.368Z,19.87
2022-09-16T15:35:24.734Z,19.61
2022-09-16T15:37:51.106Z,19.66
2022-09-16T15:40:17.499Z,19.65
2022-09-16T15:42:43.899Z,19.57
2022-09-16T15:45:12.542Z,19.40
2022-09-16T15:47:38.916Z,19.28
2022-09-16T15:50:05.302Z,19.13
2022-09-16T15:52:31.700Z,19.01
2022-09-16T15:54:58.048Z,19.12
2022-09-16T15:57:24.413Z,19.00
2022-09-16T15:59:50.784Z,19.04
2022-09-16T16:02:17.192Z,19.03
2022-09-16T16:04:43.594Z,18.98
2022-09-16T16:07:09.971Z,19.05
2022-09-16T16:09:36.330Z,18.99
2022-09-16T16:12:05.089Z,19.06
2022-09-16T16:14:31.488Z,18.95
2022-09-16T16:17:12.117Z,19.01
2022-09-16T16:19:39.374Z,19.03
2022-09-16T16:22:05.979Z,19.07
2022-09-16T16:24:32.633Z,18.81
2022-09-16T16:26:58.990Z,18.76
2022-09-16T16:29:25.363Z,18.79
2022-09-16T16:31:51.730Z,18.65
2022-09-16T16:34:18.083Z,18.64
2022-09-16T16:36:44.456Z,18.77
2022-09-16T16:39:10.821Z,18.58
2022-09-16T16:41:37.222Z,18.75
2022-09-16T16:44:03.560Z,18.78
2022-09-16T16:46:29.987Z,18.71
2022-09-16T16:48:56.413Z,18.77
2022-09-16T16:51:22.768Z,19.38
2022-09-16T16:53:49.315Z,19.66
2022-09-16T16:56:15.877Z,19.08
2022-09-16T16:58:42.266Z,18.85
2022-09-16T17:01:08.824Z,18.77
2022-09-16T17:03:35.229Z,18.73
2022-09-16T17:06:01.600Z,18.69
2022-09-16T17:08:29.781Z,18.54
2022-09-16T17:10:56.304Z,18.49
2022-09-16T17:13:22.677Z,18.57
2022-09-16T17:15:49.099Z,18.40
2022-09-16T17:18:15.580Z,18.41
2022-09-16T17:20:41.939Z,18.41
2022-09-16T17:23:08.389Z,18.37
2022-09-16T17:25:34.812Z,18.44
2022-09-16T17:28:01.210Z,18.47
2022-09-16T17:30:27.561Z,18.38
2022-09-16T17:32:53.934Z,18.48
2022-09-16T17:35:20.370Z,18.28
2022-09-16T17:37:46.724Z,18.13
2022-09-16T17:40:13.173Z,18.16
2022-09-16T17:42:39.579Z,18.11
2022-09-16T17:45:05.933Z,17.96
2022-09-16T17:47:32.357Z,17.98
2022-09-16T17:49:58.724Z,17.92
2022-09-16T17:52:26.103Z,17.85
2022-09-16T17:54:52.535Z,17.84
2022-09-16T17:57:18.902Z,17.73
2022-09-16T17:59:45.269Z,17.75
2022-09-16T18:02:11.812Z,17.63
2022-09-16T18:04:38.427Z,17.82
2022-09-16T18:07:04.838Z,17.72
2022-09-16T18:09:31.212Z,17.80
2022-09-16T18:11:57.629Z,17.74
2022-09-16T18:14:24.291Z,17.54
2022-09-16T18:16:52.769Z,17.59
2022-09-16T18:19:19.383Z,17.51
2022-09-16T18:21:45.762Z,17.48
2022-09-16T18:24:12.269Z,17.44
2022-09-16T18:26:38.702Z,17.43
2022-09-16T18:29:10.068Z,17.36
2022-09-16T18:31:36.672Z,17.34
2022-09-16T18:34:03.034Z,17.28
2022-09-16T18:36:29.403Z,17.28
2022-09-16T18:38:57.438Z,17.23
2022-09-16T18:41:23.911Z,17.15
2022-09-16T18:43:50.359Z,17.20
2022-09-16T18:46:22.925Z,17.22
2022-09-16T18:48:52.025Z,17.29
2022-09-16T18:51:18.441Z,17.17
2022-09-16T18:53:44.806Z,17.21
2022-09-16T18:56:11.139Z,17.09
2022-09-16T18:58:37.758Z,16.98
2022-09-16T19:01:04.216Z,16.92
2022-09-16T19:03:30.595Z,16.79
2022-09-16T19:05:57.030Z,16.73
2022-09-16T19:08:23.531Z,16.91
2022-09-16T19:10:50.184Z,17.05
2022-09-16T19:13:16.527Z,17.00
2022-09-16T19:15:43.940Z,16.93
2022-09-16T19:18:10.298Z,16.94
2022-09-16T19:20:37.625Z,16.88
2022-09-16T19:23:03.967Z,16.75
2022-09-16T19:25:30.345Z,16.76
2022-09-16T19:27:56.705Z,16.65
2022-09-16T19:30:23.156Z,16.67
2022-09-16T19:32:49.629Z,16.59
2022-09-16T19:35:16.165Z,16.61
2022-09-16T19:37:42.534Z,16.73
2022-09-16T19:40:08.904Z,16.71
2022-09-16T19:42:35.396Z,16.52
2022-09-16T19:45:01.854Z,16.57
2022-09-16T19:47:28.247Z,16.52
2022-09-16T19:49:54.642Z,16.68
2022-09-16T19:52:21.028Z,16.67
2022-09-16T19:54:47.402Z,16.61
2022-09-16T19:57:13.772Z,16.43
2022-09-16T19:59:40.129Z,16.27
2022-09-16T20:02:06.622Z,16.15
2022-09-16T20:04:33.112Z,16.33
2022-09-16T20:06:59.493Z,16.23
2022-09-16T20:09:25.920Z,16.46
2022-09-16T20:11:52.293Z,16.45
2022-09-16T20:14:18.661Z,16.10
2022-09-16T20:16:45.079Z,16.09
2022-09-16T20:19:11.474Z,16.14
2022-09-16T20:21:40.298Z,16.14
2022-09-16T20:24:06.680Z,15.82
2022-09-16T20:26:33.067Z,15.68
2022-09-16T20:28:59.564Z,15.66
2022-09-16T20:31:26.218Z,15.70
2022-09-16T20:33:52.611Z,15.82
2022-09-16T20:36:18.977Z,15.77
2022-09-16T20:38:45.342Z,15.77
2022-09-16T20:41:11.735Z,15.85
2022-09-16T20:43:38.154Z,15.79
2022-09-16T20:46:04.629Z,15.68
2022-09-16T20:48:31.096Z,15.71
2022-09-16T20:50:57.447Z,15.61
2022-09-16T20:53:23.872Z,15.54
2022-09-16T20:55:50.274Z,15.53
2022-09-16T20:58:16.654Z,15.62
2022-09-16T21:00:43.051Z,15.44
2022-09-16T21:03:09.427Z,15.33
2022-09-16T21:05:35.823Z,15.34
2022-09-16T21:08:02.236Z,15.51
2022-09-16T21:10:28.689Z,15.58
2022-09-16T21:12:55.098Z,15.67
2022-09-16T21:15:21.457Z,15.37
2022-09-16T21:17:47.829Z,15.30
2022-09-16T21:20:14.284Z,15.22
2022-09-16T21:22:43.668Z,15.21
2022-09-16T21:25:10.044Z,15.37
2022-09-16T21:27:36.398Z,15.39
2022-09-16T21:30:03.147Z,15.58
2022-09-16T21:32:29.705Z,15.64
2022-09-16T21:34:56.114Z,15.36
2022-09-16T21:37:22.509Z,15.32
2022-09-16T21:39:48.989Z,15.22
2022-09-16T21:42:15.451Z,15.30
2022-09-16T21:44:41.841Z,15.25
2022-09-16T21:47:08.195Z,15.43
2022-09-16T21:49:34.578Z,15.62
2022-09-16T21:52:00.935Z,15.53
2022-09-16T21:54:27.314Z,15.46
2022-09-16T21:56:53.705Z,15.27
2022-09-16T21:59:20.263Z,15.18
2022-09-16T22:01:46.757Z,15.25
2022-09-16T22:04:13.181Z,15.30
2022-09-16T22:06:39.534Z,15.28
2022-09-16T22:09:05.911Z,15.34
2022-09-16T22:11:32.285Z,15.51
2022-09-16T22:13:58.656Z,15.46
2022-09-16T22:16:26.060Z,15.61
2022-09-16T22:18:52.449Z,15.53
2022-09-16T22:21:18.816Z,15.53
2022-09-16T22:23:45.170Z,15.54
2022-09-16T22:26:11.620Z,15.51
2022-09-16T22:28:37.978Z,15.52
2022-09-16T22:31:04.452Z,15.54
2022-09-16T22:33:30.873Z,15.40
2022-09-16T22:35:57.243Z,15.40
2022-09-16T22:38:23.764Z,15.25
2022-09-16T22:40:50.113Z,15.35
2022-09-16T22:43:16.574Z,15.52
2022-09-16T22:45:43.004Z,15.44
2022-09-16T22:48:09.364Z,15.48
2022-09-16T22:50:35.757Z,15.53
2022-09-16T22:53:02.138Z,15.51
2022-09-16T22:55:28.521Z,15.55
2022-09-16T22:57:54.890Z,15.53
2022-09-16T23:00:21.281Z,15.54
2022-09-16T23:02:47.655Z,15.68
2022-09-16T23:05:14.014Z,15.72
2022-09-16T23:07:40.372Z,15.53
2022-09-16T23:10:10.454Z,15.69
2022-09-16T23:12:37.167Z,15.65
2022-09-16T23:15:03.529Z,15.52
2022-09-16T23:17:29.908Z,15.73
2022-09-16T23:19:56.259Z,15.77
2022-09-16T23:22:22.658Z,15.55
2022-09-16T23:24:49.017Z,15.71
2022-09-16T23:27:15.368Z,15.56
2022-09-16T23:29:41.746Z,15.46
2022-09-16T23:32:08.107Z,15.38
2022-09-16T23:34:34.459Z,15.50
2022-09-16T23:37:00.838Z,15.56
2022-09-16T23:39:27.209Z,15.42
2022-09-16T23:41:53.571Z,15.38
2022-09-16T23:44:19.933Z,15.26
2022-09-16T23:46:46.352Z,15.21
2022-09-16T23:49:12.763Z,15.32
2022-09-16T23:51:39.165Z,15.19
2022-09-16T23:54:05.557Z,14.97
2022-09-16T23:56:31.930Z,15.06
2022-09-16T23:58:58.332Z,15.01
